createdAt,value
2023-04-04T00:00:57.002Z,5.25
2023-04-04T00:03:23.590Z,5.68
2023-04-04T00:05:51.530Z,5.20
2023-04-04T00:08:18.130Z,4.93
2023-04-04T00:10:44.738Z,5.10
2023-04-04T00:13:11.432Z,5.50
2023-04-04T00:15:37.930Z,6.65
2023-04-04T00:18:04.778Z,6.70
2023-04-04T00:20:31.653Z,5.35
2023-04-04T00:22:58.959Z,7.53
2023-04-04T00:25:25.572Z,5.32
2023-04-04T00:27:52.042Z,6.10
2023-04-04T00:30:18.581Z,5.50
2023-04-04T00:32:45.676Z,5.13
2023-04-04T00:35:12.761Z,5.20
2023-04-04T00:37:39.267Z,6.30
2023-04-04T00:40:06.590Z,5.45
2023-04-04T00:42:34.080Z,5.47
2023-04-04T00:45:00.934Z,5.72
2023-04-04T00:47:31.156Z,5.20
2023-04-04T00:49:58.014Z,5.05
2023-04-04T00:52:24.749Z,5.25
2023-04-04T00:54:51.706Z,5.60
2023-04-04T00:57:19.330Z,5.35
2023-04-04T00:59:46.149Z,5.10
2023-04-04T01:02:12.868Z,5.57
2023-04-04T01:04:39.601Z,5.57
2023-04-04T01:07:06.879Z,7.50
2023-04-04T01:09:33.813Z,5.35
2023-04-04T01:12:02.394Z,5.45
2023-04-04T01:14:31.167Z,5.30
2023-04-04T01:16:59.215Z,4.85
2023-04-04T01:19:36.753Z,4.93
2023-04-04T01:22:11.471Z,4.97
2023-04-04T01:24:41.989Z,4.95
2023-04-04T01:27:08.827Z,5.07
2023-04-04T01:29:41.378Z,5.55
2023-04-04T01:32:14.723Z,5.45
2023-04-04T01:34:41.488Z,5.13
2023-04-04T01:37:19.081Z,5.03
2023-04-04T01:39:52.599Z,5.47
2023-04-04T01:42:20.290Z,5.60
2023-04-04T01:44:48.322Z,5.25
2023-04-04T01:47:14.792Z,5.47
2023-04-04T01:49:42.455Z,5.47
2023-04-04T01:52:09.514Z,5.70
2023-04-04T01:54:37.204Z,6.00
2023-04-04T01:57:03.852Z,5.50
2023-04-04T01:59:30.602Z,5.80
2023-04-04T02:01:57.659Z,5.65
2023-04-04T02:04:25.022Z,5.85
2023-04-04T02:06:52.630Z,5.82
2023-04-04T02:09:19.320Z,5.57
2023-04-04T02:11:46.624Z,6.18
2023-04-04T02:14:13.235Z,5.55
2023-04-04T02:16:39.785Z,6.53
2023-04-04T02:19:06.355Z,5.78
2023-04-04T02:21:36.049Z,5.72
2023-04-04T02:24:02.533Z,5.65
2023-04-04T02:26:29.008Z,6.07
2023-04-04T02:28:55.589Z,5.65
2023-04-04T02:31:22.888Z,6.30
2023-04-04T02:33:49.461Z,5.82
2023-04-04T02:36:18.886Z,5.82
2023-04-04T02:38:47.590Z,5.47
2023-04-04T02:41:14.568Z,5.75
2023-04-04T02:43:41.404Z,5.30
2023-04-04T02:46:20.466Z,4.95
2023-04-04T02:48:49.421Z,5.55
2023-04-04T02:51:16.048Z,4.85
2023-04-04T02:53:42.616Z,4.78
2023-04-04T02:56:19.773Z,5.50
2023-04-04T02:58:46.544Z,6.18
2023-04-04T03:01:13.283Z,5.45
2023-04-04T03:03:39.857Z,4.95
2023-04-04T03:06:06.659Z,5.28
2023-04-04T03:08:34.958Z,4.60
2023-04-04T03:11:02.664Z,5.38
2023-04-04T03:13:29.227Z,5.10
2023-04-04T03:16:02.664Z,5.53
2023-04-04T03:18:31.536Z,5.72
2023-04-04T03:20:58.405Z,5.53
2023-04-04T03:23:24.964Z,5.30
2023-04-04T03:25:51.662Z,5.88
2023-04-04T03:28:18.176Z,5.43
2023-04-04T03:30:44.737Z,5.88
2023-04-04T03:33:12.199Z,5.57
2023-04-04T03:35:39.669Z,5.43
2023-04-04T03:38:06.861Z,5.47
2023-04-04T03:40:33.506Z,5.05
2023-04-04T03:43:02.262Z,5.43
2023-04-04T03:45:32.608Z,4.93
2023-04-04T03:47:59.429Z,5.43
2023-04-04T03:50:27.498Z,5.30
2023-04-04T03:52:54.251Z,5.32
2023-04-04T03:55:20.755Z,5.57
2023-04-04T03:57:47.798Z,5.65
2023-04-04T04:00:16.475Z,6.22
2023-04-04T04:02:44.660Z,5.65
2023-04-04T04:05:11.753Z,5.70
2023-04-04T04:07:38.432Z,7.30
2023-04-04T04:10:05.566Z,5.60
2023-04-04T04:12:32.736Z,5.28
2023-04-04T04:14:59.344Z,5.40
2023-04-04T04:17:25.891Z,5.75
2023-04-04T04:19:53.824Z,5.85
2023-04-04T04:22:20.373Z,5.72
2023-04-04T04:24:46.940Z,6.18
2023-04-04T04:27:13.419Z,5.32
2023-04-04T04:29:40.477Z,5.72
2023-04-04T04:32:07.592Z,3.50
2023-04-04T04:34:39.256Z,5.70
2023-04-04T04:37:06.178Z,6.10
2023-04-04T04:39:46.422Z,5.82
2023-04-04T04:42:22.955Z,6.30
2023-04-04T04:44:55.390Z,5.72
2023-04-04T04:47:22.937Z,6.15
2023-04-04T04:49:49.882Z,6.43
2023-04-04T04:52:21.728Z,6.22
2023-04-04T04:54:49.338Z,6.03
2023-04-04T04:57:15.982Z,5.57
2023-04-04T04:59:44.053Z,6.70
2023-04-04T05:02:12.677Z,6.18
2023-04-04T05:04:45.190Z,6.30
2023-04-04T05:07:14.165Z,6.55
2023-04-04T05:09:43.646Z,7.13
2023-04-04T05:12:11.029Z,6.60
2023-04-04T05:14:41.883Z,6.95
2023-04-04T05:17:08.444Z,7.20
2023-04-04T05:19:35.744Z,7.80
2023-04-04T05:22:03.042Z,7.80
2023-04-04T05:24:37.985Z,7.88
2023-04-04T05:27:05.132Z,7.68
2023-04-04T05:29:38.322Z,7.60
2023-04-04T05:32:05.271Z,7.63
2023-04-04T05:34:34.416Z,7.72
2023-04-04T05:37:06.496Z,7.50
2023-04-04T05:39:34.489Z,8.10
2023-04-04T05:42:05.461Z,5.50
2023-04-04T05:44:37.143Z,8.02
2023-04-04T05:47:05.273Z,7.88
2023-04-04T05:49:31.832Z,7.63
2023-04-04T05:52:01.198Z,8.00
2023-04-04T05:54:29.253Z,8.02
2023-04-04T05:56:57.526Z,7.75
2023-04-04T05:59:37.361Z,8.10
2023-04-04T06:02:06.258Z,8.02
2023-04-04T06:04:33.635Z,7.70
2023-04-04T06:07:02.505Z,7.93
2023-04-04T06:09:29.146Z,8.82
2023-04-04T06:11:56.295Z,8.68
2023-04-04T06:14:22.871Z,8.15
2023-04-04T06:16:50.673Z,8.25
2023-04-04T06:19:17.194Z,8.60
2023-04-04T06:21:43.752Z,8.32
2023-04-04T06:24:12.342Z,8.63
2023-04-04T06:26:39.218Z,8.00
2023-04-04T06:29:06.158Z,8.77
2023-04-04T06:31:36.806Z,8.25
2023-04-04T06:34:14.862Z,8.90
2023-04-04T06:36:51.780Z,9.52
2023-04-04T06:39:19.007Z,8.63
2023-04-04T06:41:48.037Z,8.40
2023-04-04T06:44:14.792Z,8.25
2023-04-04T06:46:41.683Z,8.90
2023-04-04T06:49:08.272Z,8.60
2023-04-04T06:51:34.972Z,8.57
2023-04-04T06:54:01.733Z,8.75
2023-04-04T06:56:28.392Z,8.10
2023-04-04T06:58:54.937Z,8.15
2023-04-04T07:01:21.616Z,8.20
2023-04-04T07:03:49.228Z,7.82
2023-04-04T07:06:15.790Z,7.93
2023-04-04T07:08:42.343Z,8.02
2023-04-04T07:11:09.001Z,7.53
2023-04-04T07:13:35.566Z,7.45
2023-04-04T07:16:02.613Z,6.93
2023-04-04T07:18:29.132Z,7.45
2023-04-04T07:20:55.775Z,7.78
2023-04-04T07:23:22.337Z,7.95
2023-04-04T07:25:49.085Z,8.77
2023-04-04T07:28:15.787Z,7.57
2023-04-04T07:30:42.644Z,8.02
2023-04-04T07:33:09.472Z,8.73
2023-04-04T07:35:36.354Z,8.18
2023-04-04T07:38:04.231Z,8.00
2023-04-04T07:40:31.733Z,7.63
2023-04-04T07:42:58.213Z,8.20
2023-04-04T07:45:24.761Z,7.95
2023-04-04T07:47:51.523Z,8.35
2023-04-04T07:50:19.129Z,7.60
2023-04-04T07:52:54.503Z,7.38
2023-04-04T07:55:21.377Z,6.90
2023-04-04T07:57:48.054Z,7.22
2023-04-04T08:00:15.134Z,7.30
2023-04-04T08:02:44.690Z,7.30
2023-04-04T08:05:11.384Z,7.15
2023-04-04T08:07:37.931Z,7.53
2023-04-04T08:10:04.902Z,6.95
2023-04-04T08:12:31.448Z,6.57
2023-04-04T08:14:57.967Z,7.13
2023-04-04T08:17:24.688Z,6.97
2023-04-04T08:19:51.279Z,6.43
2023-04-04T08:22:18.341Z,6.97
2023-04-04T08:24:44.970Z,6.25
2023-04-04T08:27:11.584Z,5.80
2023-04-04T08:29:38.133Z,5.85
2023-04-04T08:32:05.100Z,5.85
2023-04-04T08:34:32.116Z,5.63
2023-04-04T08:36:59.829Z,6.28
2023-04-04T08:39:27.217Z,5.30
2023-04-04T08:42:05.577Z,5.18
2023-04-04T08:44:34.064Z,5.78
2023-04-04T08:47:03.349Z,5.55
2023-04-04T08:49:38.245Z,5.65
2023-04-04T08:52:06.375Z,5.32
2023-04-04T08:54:34.419Z,4.65
2023-04-04T08:57:01.666Z,5.30
2023-04-04T08:59:28.300Z,5.28
2023-04-04T09:02:11.696Z,6.35
2023-04-04T09:04:39.944Z,8.77
2023-04-04T09:07:07.002Z,5.10
2023-04-04T09:09:34.220Z,5.65
2023-04-04T09:12:02.319Z,5.32
2023-04-04T09:14:30.841Z,4.85
2023-04-04T09:16:57.916Z,4.55
2023-04-04T09:19:26.272Z,5.10
2023-04-04T09:21:53.117Z,4.80
2023-04-04T09:24:19.672Z,4.50
2023-04-04T09:26:51.571Z,5.10
2023-04-04T09:31:52.189Z,4.63
2023-04-04T09:34:20.185Z,4.95
2023-04-04T09:36:47.679Z,5.10
2023-04-04T09:39:16.633Z,9.95
2023-04-04T09:41:45.371Z,4.68
2023-04-04T09:44:13.167Z,15.70
2023-04-04T09:46:40.720Z,5.20
2023-04-04T09:49:13.950Z,4.88
2023-04-04T09:51:42.486Z,5.35
2023-04-04T09:54:28.706Z,4.90
2023-04-04T09:56:56.965Z,4.63
2023-04-04T09:59:24.277Z,4.80
2023-04-04T10:01:53.442Z,4.68
2023-04-04T10:04:20.232Z,4.68
2023-04-04T10:06:47.122Z,4.85
2023-04-04T10:09:15.450Z,4.82
2023-04-04T10:11:42.115Z,5.10
2023-04-04T10:14:09.345Z,4.60
2023-04-04T10:16:39.119Z,5.05
2023-04-04T10:19:09.023Z,5.22
2023-04-04T10:21:35.756Z,5.50
2023-04-04T10:24:08.862Z,6.07
2023-04-04T10:26:35.512Z,5.68
2023-04-04T10:29:02.019Z,4.50
2023-04-04T10:31:31.253Z,5.75
2023-04-04T10:34:13.697Z,5.15
2023-04-04T10:36:45.891Z,4.30
2023-04-04T10:39:27.616Z,4.82
2023-04-04T10:41:56.556Z,4.85
2023-04-04T10:44:29.918Z,4.70
2023-04-04T10:46:59.666Z,5.68
2023-04-04T10:49:29.918Z,4.60
2023-04-04T10:51:57.525Z,4.88
2023-04-04T10:54:26.281Z,4.97
2023-04-04T10:56:55.107Z,5.50
2023-04-04T10:59:25.256Z,4.75
2023-04-04T11:02:02.330Z,5.10
2023-04-04T11:04:33.875Z,5.22
2023-04-04T11:07:06.913Z,6.68
2023-04-04T11:10:16.290Z,5.32
2023-04-04T11:12:45.780Z,4.82
2023-04-04T11:15:21.358Z,5.32
2023-04-04T11:17:57.625Z,4.93
2023-04-04T11:20:33.264Z,5.20
2023-04-04T11:23:08.770Z,4.95
2023-04-04T11:25:39.807Z,5.05
2023-04-04T11:28:08.856Z,5.05
2023-04-04T11:30:48.003Z,5.20
2023-04-04T11:33:27.511Z,5.25
2023-04-04T11:35:58.961Z,5.47
2023-04-04T11:38:26.883Z,7.00
2023-04-04T11:40:54.798Z,14.27
2023-04-04T11:43:21.558Z,6.82
2023-04-04T11:45:48.744Z,5.50
2023-04-04T11:48:17.652Z,5.15
2023-04-04T11:50:49.910Z,5.07
2023-04-04T11:53:17.574Z,6.05
2023-04-04T11:55:47.921Z,5.88
2023-04-04T11:58:16.846Z,5.32
2023-04-04T12:00:44.094Z,5.15
2023-04-04T12:03:12.564Z,5.20
2023-04-04T12:05:41.147Z,22.88
2023-04-04T12:08:10.111Z,30.15
2023-04-04T12:10:39.049Z,5.57
2023-04-04T12:13:07.302Z,5.30
2023-04-04T12:15:36.080Z,5.05
2023-04-04T12:18:09.146Z,5.75
2023-04-04T12:20:39.596Z,5.68
2023-04-04T12:23:06.156Z,5.32
2023-04-04T12:25:34.181Z,7.32
2023-04-04T12:28:03.879Z,5.13
2023-04-04T12:30:30.695Z,5.25
2023-04-04T12:32:57.624Z,5.40
2023-04-04T12:35:24.697Z,5.32
2023-04-04T12:37:59.406Z,5.18
2023-04-04T12:40:29.923Z,15.68
2023-04-04T12:42:57.314Z,9.55
2023-04-04T12:45:26.649Z,6.60
2023-04-04T12:47:54.865Z,5.40
2023-04-04T12:50:27.368Z,5.40
2023-04-04T12:52:55.536Z,5.15
2023-04-04T12:55:31.440Z,6.60
2023-04-04T12:58:00.842Z,5.07
2023-04-04T13:00:27.403Z,5.78
2023-04-04T13:02:55.384Z,5.15
2023-04-04T13:05:25.650Z,9.70
2023-04-04T13:08:05.698Z,11.18
2023-04-04T13:11:03.682Z,5.15
2023-04-04T13:13:38.681Z,5.20
2023-04-04T13:16:07.826Z,5.43
2023-04-04T13:18:43.486Z,5.53
2023-04-04T13:21:11.968Z,5.40
2023-04-04T13:23:41.381Z,5.70
2023-04-04T13:26:09.699Z,6.20
2023-04-04T13:28:36.603Z,5.38
2023-04-04T13:31:08.111Z,5.55
2023-04-04T13:33:35.101Z,5.68
2023-04-04T13:36:01.677Z,6.03
2023-04-04T13:38:29.676Z,6.45
2023-04-04T13:40:59.852Z,6.40
2023-04-04T13:43:27.194Z,5.95
2023-04-04T13:45:55.373Z,6.53
2023-04-04T13:48:22.209Z,6.20
2023-04-04T13:50:51.546Z,6.40
2023-04-04T13:53:18.726Z,6.38
2023-04-04T13:56:01.407Z,6.10
2023-04-04T13:58:32.875Z,6.82
2023-04-04T14:01:04.124Z,6.47
2023-04-04T14:03:31.351Z,6.68
2023-04-04T14:06:00.291Z,6.30
2023-04-04T14:08:30.622Z,6.40
2023-04-04T14:10:57.455Z,6.95
2023-04-04T14:13:23.964Z,6.40
2023-04-04T14:15:50.849Z,6.60
2023-04-04T14:18:17.508Z,6.50
2023-04-04T14:20:44.283Z,6.70
2023-04-04T14:23:11.011Z,6.90
2023-04-04T14:25:37.584Z,6.63
2023-04-04T14:28:04.143Z,6.68
2023-04-04T14:30:30.784Z,7.05
2023-04-04T14:32:57.365Z,7.07
2023-04-04T14:35:23.947Z,6.78
2023-04-04T14:37:50.521Z,7.03
2023-04-04T14:40:17.393Z,6.93
2023-04-04T14:42:43.870Z,6.30
2023-04-04T14:45:12.212Z,6.35
2023-04-04T14:47:38.790Z,6.63
2023-04-04T14:50:06.080Z,6.32
2023-04-04T14:52:33.698Z,6.25
2023-04-04T14:55:00.915Z,6.45
2023-04-04T14:57:28.703Z,6.30
2023-04-04T14:59:55.399Z,5.70
2023-04-04T15:02:22.139Z,5.90
2023-04-04T15:04:48.817Z,5.90
2023-04-04T15:07:15.747Z,6.20
2023-04-04T15:09:42.321Z,6.50
2023-04-04T15:12:08.925Z,6.20
2023-04-04T15:14:36.576Z,5.65
2023-04-04T15:17:03.092Z,5.97
2023-04-04T15:19:29.636Z,5.47
2023-04-04T15:21:57.104Z,5.72
2023-04-04T15:24:23.689Z,5.93
2023-04-04T15:26:50.207Z,6.07
2023-04-04T15:29:16.787Z,5.88
2023-04-04T15:31:43.366Z,5.60
2023-04-04T15:34:09.890Z,6.45
2023-04-04T15:36:36.430Z,6.03
2023-04-04T15:39:03.428Z,6.05
2023-04-04T15:41:30.061Z,6.38
2023-04-04T15:43:56.658Z,6.03
2023-04-04T15:46:23.280Z,5.60
2023-04-04T15:48:52.013Z,10.60
2023-04-04T15:51:18.753Z,5.78
2023-04-04T15:53:45.374Z,5.60
2023-04-04T15:56:13.450Z,6.28
2023-04-04T15:58:39.959Z,6.63
2023-04-04T16:01:07.345Z,5.97
2023-04-04T16:03:34.103Z,6.10
2023-04-04T16:06:00.680Z,7.07
2023-04-04T16:08:27.230Z,6.10
2023-04-04T16:10:53.846Z,6.30
2023-04-04T16:13:20.397Z,6.25
2023-04-04T16:15:46.933Z,6.70
2023-04-04T16:18:13.521Z,6.47
2023-04-04T16:20:40.404Z,6.72
2023-04-04T16:23:07.100Z,6.80
2023-04-04T16:25:33.681Z,6.20
2023-04-04T16:28:00.414Z,6.80
2023-04-04T16:30:28.395Z,6.63
2023-04-04T16:32:55.041Z,6.50
2023-04-04T16:35:21.581Z,6.35
2023-04-04T16:37:48.191Z,6.72
2023-04-04T16:40:15.576Z,6.70
2023-04-04T16:42:42.195Z,6.65
2023-04-04T16:45:09.457Z,7.20
2023-04-04T16:47:36.706Z,6.63
2023-04-04T16:50:07.096Z,5.90
2023-04-04T16:52:33.635Z,6.20
2023-04-04T16:55:00.401Z,6.80
2023-04-04T16:57:27.130Z,6.32
2023-04-04T16:59:53.729Z,6.45
2023-04-04T17:02:20.288Z,6.50
2023-04-04T17:04:46.900Z,6.95
2023-04-04T17:07:13.419Z,6.78
2023-04-04T17:09:39.972Z,6.60
2023-04-04T17:12:06.534Z,6.40
2023-04-04T17:14:33.423Z,7.15
2023-04-04T17:17:00.437Z,6.60
2023-04-04T17:19:29.838Z,6.90
2023-04-04T17:21:56.921Z,6.97
2023-04-04T17:24:25.411Z,7.20
2023-04-04T17:26:52.325Z,6.93
2023-04-04T17:29:20.610Z,6.72
2023-04-04T17:31:48.848Z,7.20
2023-04-04T17:34:16.138Z,6.80
2023-04-04T17:36:43.701Z,6.90
2023-04-04T17:39:10.257Z,6.40
2023-04-04T17:41:37.937Z,6.85
2023-04-04T17:44:04.522Z,6.80
2023-04-04T17:46:31.080Z,6.90
2023-04-04T17:48:57.638Z,7.07
2023-04-04T17:51:24.318Z,7.00
2023-04-04T17:53:51.299Z,7.05
2023-04-04T17:56:17.944Z,7.20
2023-04-04T17:58:44.516Z,6.57
2023-04-04T18:01:11.517Z,7.10
2023-04-04T18:03:38.487Z,7.53
2023-04-04T18:06:05.796Z,7.65
2023-04-04T18:08:32.316Z,7.40
2023-04-04T18:10:58.883Z,7.45
2023-04-04T18:13:25.411Z,7.63
2023-04-04T18:15:53.175Z,6.70
2023-04-04T18:18:21.221Z,6.55
2023-04-04T18:20:48.215Z,6.57
2023-04-04T18:23:16.650Z,6.60
2023-04-04T18:25:43.347Z,6.20
2023-04-04T18:28:09.864Z,6.18
2023-04-04T18:30:37.486Z,6.32
2023-04-04T18:33:04.588Z,6.53
2023-04-04T18:35:31.340Z,6.60
2023-04-04T18:37:57.930Z,6.72
2023-04-04T18:40:24.429Z,7.63
2023-04-04T18:42:52.144Z,8.82
2023-04-04T18:45:20.909Z,8.65
2023-04-04T18:47:49.979Z,8.57
2023-04-04T18:50:16.938Z,7.97
2023-04-04T18:52:43.486Z,8.68
2023-04-04T18:55:10.675Z,8.75
2023-04-04T18:57:37.660Z,8.80
2023-04-04T19:00:06.690Z,8.52
2023-04-04T19:02:34.175Z,8.65
2023-04-04T19:05:02.872Z,9.07
2023-04-04T19:07:31.409Z,9.52
2023-04-04T19:09:59.305Z,9.13
2023-04-04T19:12:25.919Z,11.20
2023-04-04T19:14:52.471Z,10.38
2023-04-04T19:17:19.055Z,9.85
2023-04-04T19:19:45.522Z,8.88
2023-04-04T19:22:12.177Z,8.68
2023-04-04T19:24:42.183Z,8.50
2023-04-04T19:27:08.787Z,7.90
2023-04-04T19:29:36.497Z,7.55
2023-04-04T19:32:14.277Z,7.40
2023-04-04T19:34:42.854Z,7.15
2023-04-04T19:37:12.814Z,6.88
2023-04-04T19:39:41.629Z,6.25
2023-04-04T19:42:08.877Z,6.80
2023-04-04T19:44:42.907Z,6.97
2023-04-04T19:47:19.273Z,6.85
2023-04-04T19:49:45.825Z,6.85
2023-04-04T19:52:13.935Z,6.55
2023-04-04T19:54:42.893Z,6.80
2023-04-04T19:57:20.003Z,6.95
2023-04-04T20:00:09.555Z,7.47
2023-04-04T20:02:53.327Z,7.72
2023-04-04T20:05:46.221Z,7.53
2023-04-04T20:08:14.277Z,8.23
2023-04-04T20:10:42.221Z,7.55
2023-04-04T20:13:09.511Z,7.65
2023-04-04T20:15:44.907Z,7.82
2023-04-04T20:18:20.510Z,7.90
2023-04-04T20:21:04.672Z,8.25
2023-04-04T20:23:32.923Z,8.18
2023-04-04T20:26:05.828Z,8.32
2023-04-04T20:28:32.753Z,7.80
2023-04-04T20:31:12.166Z,8.48
2023-04-04T20:33:40.535Z,8.05
2023-04-04T20:36:08.677Z,8.80
2023-04-04T20:38:36.850Z,8.45
2023-04-04T20:41:10.641Z,8.45
2023-04-04T20:43:38.292Z,8.38
2023-04-04T20:46:04.975Z,9.25
2023-04-04T20:48:39.756Z,8.70
2023-04-04T20:51:23.956Z,9.13
2023-04-04T20:53:51.886Z,8.95
2023-04-04T20:56:44.844Z,9.15
2023-04-04T20:59:36.296Z,8.52
2023-04-04T21:02:16.576Z,9.05
2023-04-04T21:04:45.609Z,9.38
2023-04-04T21:07:41.548Z,8.40
2023-04-04T21:10:29.285Z,9.43
2023-04-04T21:13:03.331Z,8.98
2023-04-04T21:15:33.636Z,9.13
2023-04-04T21:18:04.836Z,9.25
2023-04-04T21:21:10.281Z,8.93
2023-04-04T21:23:58.597Z,8.38
2023-04-04T21:26:33.995Z,8.20
2023-04-04T21:29:03.804Z,8.60
2023-04-04T21:31:38.596Z,8.60
2023-04-04T21:34:14.050Z,9.07
2023-04-04T21:36:41.036Z,8.98
2023-04-04T21:39:13.936Z,9.18
2023-04-04T21:41:41.326Z,8.90
2023-04-04T21:44:10.386Z,9.48
2023-04-04T21:46:39.534Z,9.30
2023-04-04T21:49:07.132Z,9.07
2023-04-04T21:51:33.906Z,10.38
2023-04-04T21:54:01.165Z,11.18
2023-04-04T21:56:31.325Z,11.10
2023-04-04T21:59:02.687Z,10.90
2023-04-04T22:01:30.383Z,11.40
2023-04-04T22:03:58.030Z,10.73
2023-04-04T22:06:26.148Z,10.65
2023-04-04T22:08:56.456Z,10.52
2023-04-04T22:11:26.007Z,10.02
2023-04-04T22:14:03.084Z,10.63
2023-04-04T22:16:30.991Z,10.63
2023-04-04T22:18:58.886Z,10.05
2023-04-04T22:21:28.150Z,10.55
2023-04-04T22:24:00.960Z,10.25
2023-04-04T22:26:33.852Z,10.73
2023-04-04T22:29:02.622Z,11.15
2023-04-04T22:31:29.263Z,10.52
2023-04-04T22:33:56.175Z,10.13
2023-04-04T22:36:24.351Z,11.05
2023-04-04T22:38:56.532Z,11.38
2023-04-04T22:41:28.130Z,10.90
2023-04-04T22:43:55.342Z,10.55
2023-04-04T22:46:22.085Z,10.70
2023-04-04T22:48:48.834Z,10.55
2023-04-04T22:51:16.287Z,10.45
2023-04-04T22:53:44.040Z,10.25
2023-04-04T22:56:11.079Z,10.60
2023-04-04T22:58:37.760Z,10.57
2023-04-04T23:01:04.848Z,10.85
2023-04-04T23:03:31.798Z,10.95
2023-04-04T23:05:58.298Z,9.65
2023-04-04T23:08:24.879Z,9.88
2023-04-04T23:10:51.367Z,9.38
2023-04-04T23:13:17.892Z,9.50
2023-04-04T23:15:45.131Z,9.25
2023-04-04T23:18:12.500Z,9.05
2023-04-04T23:20:39.609Z,9.82
2023-04-04T23:23:06.330Z,9.40
2023-04-04T23:25:32.881Z,9.50
2023-04-04T23:27:59.360Z,9.95
2023-04-04T23:30:25.986Z,9.93
2023-04-04T23:32:52.704Z,9.60
2023-04-04T23:35:19.326Z,10.00
2023-04-04T23:37:45.954Z,10.25
2023-04-04T23:40:12.993Z,10.45
2023-04-04T23:42:39.493Z,10.38
2023-04-04T23:45:06.670Z,10.50
2023-04-04T23:47:33.421Z,10.38
2023-04-04T23:50:00.165Z,10.13
2023-04-04T23:52:27.062Z,10.73
2023-04-04T23:54:53.542Z,10.75
2023-04-04T23:57:20.079Z,10.27
2023-04-04T23:59:46.691Z,10.50
